Time;durP1;ratioP1;P1;durP2;ratioP2;P2;SDS_P1;SDS_P2;PMS_P1;PMS_P2;Temp;Humidity;BMP_temperature;BMP_pressure;BME280_temperature;BME280_humidity;BME280_pressure;Samples;Min_cycle;Max_cycle;Signal;HPM_P1;HPM_P2
2022/09/10 00:01:41;;;;;;;4.63;3.92;;;;;;;14.11;100.00;100245.91;5045173;28;20037;-77
2022/09/10 00:04:10;;;;;;;4.93;3.63;;;;;;;14.12;100.00;100237.03;5042451;28;20043;-77
2022/09/10 00:06:37;;;;;;;4.65;3.67;;;;;;;14.03;100.00;100246.97;5044142;28;20075;-77
2022/09/10 00:09:04;;;;;;;5.00;4.40;;;;;;;13.95;100.00;100240.97;5042911;28;20029;-77
2022/09/10 00:11:30;;;;;;;5.22;3.70;;;;;;;13.91;100.00;100243.72;5042259;28;20103;-77
2022/09/10 00:13:57;;;;;;;7.88;4.28;;;;;;;13.79;100.00;100247.56;5045371;28;20037;-77
2022/09/10 00:16:22;;;;;;;4.35;3.85;;;;;;;13.77;100.00;100252.03;5042566;28;20051;-77
2022/09/10 00:18:48;;;;;;;5.15;3.78;;;;;;;13.70;100.00;100253.97;5044126;28;20081;-77
2022/09/10 00:21:17;;;;;;;8.68;3.92;;;;;;;13.72;100.00;100257.44;5044912;28;20044;-77
2022/09/10 00:23:44;;;;;;;5.65;4.60;;;;;;;13.66;100.00;100254.06;5038487;28;20060;-77
2022/09/10 00:26:25;;;;;;;6.18;4.82;;;;;;;13.62;100.00;100247.94;5041559;28;20037;-77
2022/09/10 00:28:53;;;;;;;5.28;4.05;;;;;;;13.59;100.00;100242.72;5043269;28;20384;-76
2022/09/10 00:31:20;;;;;;;8.90;4.57;;;;;;;13.57;100.00;100240.13;5040953;28;20075;-77
2022/09/10 00:33:46;;;;;;;5.25;3.90;;;;;;;13.57;100.00;100236.56;5041122;28;20037;-77
2022/09/10 00:36:14;;;;;;;5.57;4.50;;;;;;;13.61;100.00;100240.06;5037177;28;20037;-77
2022/09/10 00:38:40;;;;;;;5.72;4.28;;;;;;;13.61;100.00;100246.22;5042523;28;20120;-77
2022/09/10 00:41:07;;;;;;;5.35;3.90;;;;;;;13.58;100.00;100241.00;5040822;28;20488;-77
2022/09/10 00:43:54;;;;;;;5.97;3.80;;;;;;;13.54;100.00;100250.78;5043281;28;20036;-77
2022/09/10 00:46:46;;;;;;;5.70;4.10;;;;;;;13.53;100.00;100254.34;5043383;28;20499;-77
2022/09/10 00:49:34;;;;;;;4.60;4.18;;;;;;;13.57;100.00;100256.03;5041329;28;20049;-77
2022/09/10 00:52:01;;;;;;;3.60;3.25;;;;;;;13.56;100.00;100243.66;5028192;28;20155;-77
2022/09/10 00:54:28;;;;;;;4.50;3.58;;;;;;;13.56;100.00;100254.28;5033118;28;20044;-77
2022/09/10 00:56:57;;;;;;;5.82;3.67;;;;;;;13.52;100.00;100247.31;5042562;28;20466;-77
2022/09/10 00:59:25;;;;;;;5.07;4.05;;;;;;;13.55;100.00;100249.03;5044149;28;20040;-77
2022/09/10 01:01:51;;;;;;;5.25;4.43;;;;;;;13.62;100.00;100247.94;5041730;28;20456;-77
2022/09/10 01:04:17;;;;;;;4.40;3.80;;;;;;;13.72;100.00;100248.63;5043588;28;20048;-77
2022/09/10 01:06:44;;;;;;;5.20;4.70;;;;;;;13.83;100.00;100238.59;5041890;28;20042;-77
2022/09/10 01:09:11;;;;;;;4.50;3.83;;;;;;;13.89;100.00;100243.78;5043295;28;20037;-77
2022/09/10 01:11:51;;;;;;;4.80;4.25;;;;;;;13.88;100.00;100247.34;5042467;28;20079;-77
2022/09/10 01:14:28;;;;;;;7.60;4.20;;;;;;;13.90;100.00;100242.88;5022760;28;20492;-77
2022/09/10 01:17:21;;;;;;;4.70;4.18;;;;;;;13.88;100.00;100246.47;5040660;28;20116;-77
2022/09/10 01:20:11;;;;;;;6.90;3.83;;;;;;;13.88;100.00;100252.63;5059810;28;20037;-77
2022/09/10 01:22:58;;;;;;;4.72;4.20;;;;;;;13.86;100.00;100249.19;5044236;28;20151;-77
2022/09/10 01:25:42;;;;;;;7.25;4.10;;;;;;;13.85;100.00;100255.38;5040937;28;20502;-77
2022/09/10 01:28:13;;;;;;;5.32;4.13;;;;;;;13.89;100.00;100251.75;5027755;28;20407;-77
2022/09/10 01:30:45;;;;;;;6.97;4.20;;;;;;;13.99;100.00;100247.97;5036162;28;20056;-77
2022/09/10 01:33:32;;;;;;;4.82;3.50;;;;;;;14.13;100.00;100247.59;5042945;28;20636;-77
2022/09/10 01:36:10;;;;;;;5.22;3.47;;;;;;;14.28;100.00;100253.41;5022375;28;20033;-77
2022/09/10 01:38:37;;;;;;;8.00;4.13;;;;;;;14.32;100.00;100249.78;5043339;28;20036;-77
2022/09/10 01:41:04;;;;;;;4.43;3.67;;;;;;;14.39;100.00;100257.56;5040005;28;20102;-77
2022/09/10 01:43:35;;;;;;;5.00;4.22;;;;;;;14.38;100.00;100258.47;5040613;28;20474;-77
2022/09/10 01:46:24;;;;;;;3.97;3.58;;;;;;;14.42;100.00;100259.25;5039554;28;20125;-77
2022/09/10 01:49:17;;;;;;;5.60;3.67;;;;;;;14.43;99.91;100261.00;5057963;28;20036;-77
2022/09/10 01:52:14;;;;;;;4.72;3.40;;;;;;;14.53;98.84;100264.31;5026546;28;20033;-77
2022/09/10 01:54:56;;;;;;;4.38;3.40;;;;;;;14.57;97.48;100266.00;5050447;28;20049;-77
2022/09/10 01:57:49;;;;;;;4.88;3.53;;;;;;;14.59;97.57;100261.50;5022726;28;20033;-77
2022/09/10 02:00:18;;;;;;;5.45;3.25;;;;;;;14.59;97.35;100259.72;5049696;28;20058;-77
2022/09/10 02:02:57;;;;;;;6.40;3.55;;;;;;;14.55;97.18;100251.88;5039658;28;20033;-77
2022/09/10 02:05:29;;;;;;;4.50;3.58;;;;;;;14.45;97.57;100265.34;5024533;28;20041;-77
2022/09/10 02:08:00;;;;;;;4.20;3.00;;;;;;;14.40;97.64;100258.44;5042006;28;20037;-77
2022/09/10 02:10:26;;;;;;;4.28;3.35;;;;;;;14.40;97.31;100259.28;5041249;28;20025;-78
2022/09/10 02:12:52;;;;;;;5.32;2.95;;;;;;;14.38;97.69;100255.81;5040962;28;20037;-77
2022/09/10 02:15:41;;;;;;;3.83;3.13;;;;;;;14.45;97.16;100249.41;5045550;28;20064;-77
2022/09/10 02:18:19;;;;;;;5.63;3.47;;;;;;;14.53;96.37;100254.56;5036414;28;20513;-77
2022/09/10 02:20:46;;;;;;;4.07;3.13;;;;;;;14.53;95.86;100248.38;5040975;28;20020;-77
2022/09/10 02:23:17;;;;;;;6.18;4.00;;;;;;;14.60;95.23;100256.16;5040245;28;20049;-77
2022/09/10 02:25:42;;;;;;;10.50;4.07;;;;;;;14.57;95.07;100244.75;5033514;28;20033;-77
2022/09/10 02:28:09;;;;;;;6.82;3.80;;;;;;;14.62;94.56;100248.16;5042279;28;20083;-77
2022/09/10 02:30:34;;;;;;;5.10;4.10;;;;;;;14.68;93.86;100247.97;5040248;28;20033;-77
2022/09/10 02:32:59;;;;;;;6.15;3.38;;;;;;;14.69;93.23;100247.91;5041016;28;20037;-77
2022/09/10 02:35:25;;;;;;;4.10;3.30;;;;;;;14.67;93.22;100243.56;5042990;28;20078;-77
2022/09/10 02:37:50;;;;;;;5.38;3.55;;;;;;;14.65;93.28;100248.06;5042231;28;20029;-78
2022/09/10 02:40:18;;;;;;;4.95;3.92;;;;;;;14.69;92.71;100255.00;5046355;28;20507;-78
2022/09/10 02:42:45;;;;;;;5.32;3.50;;;;;;;14.61;93.13;100252.56;5041964;28;20105;-77
2022/09/10 02:45:14;;;;;;;3.88;3.28;;;;;;;14.61;93.03;100249.91;5040251;28;20083;-77
2022/09/10 02:47:39;;;;;;;5.05;3.58;;;;;;;14.60;93.04;100250.84;5038375;28;20030;-77
2022/09/10 02:50:06;;;;;;;4.15;3.72;;;;;;;14.58;93.12;100243.81;5038462;28;20442;-77
2022/09/10 02:52:32;;;;;;;8.73;4.15;;;;;;;14.58;92.97;100246.47;5042328;28;20060;-77
2022/09/10 02:54:58;;;;;;;6.60;3.50;;;;;;;14.58;92.83;100242.03;5041956;28;20064;-77
2022/09/10 02:57:26;;;;;;;6.60;3.10;;;;;;;14.57;92.76;100250.06;5041066;28;20030;-77
2022/09/10 02:59:55;;;;;;;4.35;3.08;;;;;;;14.58;92.37;100246.47;5035686;28;20032;-77
2022/09/10 03:02:21;;;;;;;5.40;3.25;;;;;;;14.55;92.69;100246.56;5038418;28;20040;-77
2022/09/10 03:04:46;;;;;;;5.35;3.42;;;;;;;14.53;92.41;100237.75;5041341;28;20041;-77
2022/09/10 03:07:15;;;;;;;6.93;3.30;;;;;;;14.52;92.11;100243.97;5039486;28;20025;-77
2022/09/10 03:09:43;;;;;;;3.72;3.15;;;;;;;14.45;92.61;100246.75;5035694;28;20678;-77
2022/09/10 03:12:09;;;;;;;5.90;3.38;;;;;;;14.42;92.33;100240.69;5038025;28;20029;-77
2022/09/10 03:14:34;;;;;;;4.70;3.25;;;;;;;14.37;92.16;100239.94;5034518;28;20041;-77
2022/09/10 03:17:01;;;;;;;4.63;3.38;;;;;;;14.34;92.54;100242.66;5040768;28;20041;-77
2022/09/10 03:19:27;;;;;;;7.63;3.17;;;;;;;14.23;93.11;100241.16;5039363;28;20102;-77
2022/09/10 03:21:52;;;;;;;5.20;3.15;;;;;;;14.21;92.94;100236.81;5039044;28;20037;-77
2022/09/10 03:24:18;;;;;;;6.03;3.05;;;;;;;14.09;93.33;100253.03;5041674;28;20063;-77
2022/09/10 03:26:44;;;;;;;5.03;3.65;;;;;;;14.01;93.86;100253.22;5037941;28;20029;-77
2022/09/10 03:29:11;;;;;;;7.47;3.58;;;;;;;13.86;95.05;100245.63;5018895;28;20113;-77
2022/09/10 03:31:38;;;;;;;4.10;3.08;;;;;;;13.75;95.78;100245.88;5039623;28;20120;-77
2022/09/10 03:34:05;;;;;;;4.70;3.33;;;;;;;13.70;96.45;100245.13;5039371;28;20595;-77
2022/09/10 03:36:31;;;;;;;4.10;3.08;;;;;;;13.63;95.88;100244.41;5038582;28;20037;-77
2022/09/10 03:38:57;;;;;;;4.05;3.53;;;;;;;13.58;96.21;100246.28;5040878;28;20465;-77
2022/09/10 03:41:27;;;;;;;4.50;3.40;;;;;;;13.46;97.44;100247.44;5037857;28;20448;-77
2022/09/10 03:43:55;;;;;;;6.43;3.63;;;;;;;13.37;97.81;100245.88;5042877;28;20127;-77
2022/09/10 03:46:21;;;;;;;9.85;3.30;;;;;;;13.28;97.74;100256.69;5043294;28;20045;-77
2022/09/10 03:48:47;;;;;;;4.00;3.53;;;;;;;13.21;98.70;100254.16;5041871;28;20041;-77
2022/09/10 03:51:14;;;;;;;4.30;3.05;;;;;;;13.09;99.56;100250.84;5047323;28;20111;-77
2022/09/10 03:53:41;;;;;;;4.53;3.30;;;;;;;13.06;100.00;100250.91;5041401;28;20044;-77
2022/09/10 03:56:11;;;;;;;5.95;3.47;;;;;;;13.03;100.00;100248.34;5039240;28;20040;-77
2022/09/10 03:58:37;;;;;;;6.72;3.60;;;;;;;13.02;99.88;100238.66;5040997;28;20033;-76
2022/09/10 04:01:03;;;;;;;6.32;3.45;;;;;;;12.99;99.59;100249.28;5043908;28;20549;-77
2022/09/10 04:03:31;;;;;;;5.93;3.15;;;;;;;12.96;100.00;100251.13;5041311;28;20409;-77
2022/09/10 04:05:57;;;;;;;6.13;3.63;;;;;;;12.88;100.00;100253.94;5044658;28;20084;-77
2022/09/10 04:08:22;;;;;;;8.45;3.83;;;;;;;12.81;100.00;100255.84;5042148;28;20064;-77
2022/09/10 04:10:49;;;;;;;5.05;3.03;;;;;;;12.77;100.00;100259.44;5041797;28;20033;-77
2022/09/10 04:13:15;;;;;;;5.35;3.40;;;;;;;12.76;100.00;100257.72;5043409;28;20499;-77
2022/09/10 04:15:44;;;;;;;4.38;3.78;;;;;;;12.75;100.00;100257.75;5040667;28;20034;-77
2022/09/10 04:18:10;;;;;;;4.22;3.15;;;;;;;12.71;100.00;100263.09;5043241;28;20064;-77
2022/09/10 04:20:37;;;;;;;9.70;3.60;;;;;;;12.64;100.00;100264.09;5041944;28;20444;-77
2022/09/10 04:23:06;;;;;;;4.90;3.75;;;;;;;12.55;100.00;100259.00;5042199;28;20032;-77
2022/09/10 04:25:34;;;;;;;5.68;3.30;;;;;;;12.43;100.00;100259.22;5040944;28;20044;-77
2022/09/10 04:28:00;;;;;;;5.30;3.53;;;;;;;12.42;100.00;100260.13;5043590;28;20037;-77
2022/09/10 04:30:26;;;;;;;5.65;3.38;;;;;;;12.37;100.00;100261.97;5041547;28;20029;-77
2022/09/10 04:32:51;;;;;;;8.23;3.72;;;;;;;12.34;100.00;100256.72;5041908;28;20029;-77
2022/09/10 04:35:18;;;;;;;8.20;3.90;;;;;;;12.35;100.00;100269.06;5040514;28;20033;-77
2022/09/10 04:37:43;;;;;;;4.75;3.50;;;;;;;12.23;100.00;100271.00;5039675;28;20037;-77
2022/09/10 04:40:10;;;;;;;5.57;4.13;;;;;;;12.24;100.00;100267.47;5044462;28;20033;-77
2022/09/10 04:42:37;;;;;;;5.75;3.97;;;;;;;12.27;100.00;100267.41;5042781;28;20032;-77
2022/09/10 04:45:03;;;;;;;5.65;3.50;;;;;;;12.33;100.00;100270.88;5042247;28;20075;-77
2022/09/10 04:47:29;;;;;;;5.90;3.60;;;;;;;12.32;100.00;100274.41;5043575;28;20029;-76
2022/09/10 04:49:55;;;;;;;4.20;3.65;;;;;;;12.31;100.00;100280.59;5042645;28;20040;-78
2022/09/10 04:52:21;;;;;;;9.05;3.75;;;;;;;12.38;100.00;100276.94;5042976;28;20087;-76
2022/09/10 04:54:48;;;;;;;6.00;3.90;;;;;;;12.43;100.00;100278.59;5018688;28;20561;-77
2022/09/10 04:57:14;;;;;;;7.10;3.78;;;;;;;12.43;100.00;100281.25;5038562;28;20064;-77
2022/09/10 04:59:39;;;;;;;6.07;3.53;;;;;;;12.44;100.00;100274.19;5038666;28;20068;-76
2022/09/10 05:02:07;;;;;;;5.50;4.07;;;;;;;12.42;100.00;100276.00;5041165;28;20499;-77
2022/09/10 05:04:34;;;;;;;9.45;4.30;;;;;;;12.51;100.00;100275.81;5039796;28;20399;-77
2022/09/10 05:07:01;;;;;;;3.85;3.30;;;;;;;12.58;100.00;100271.31;5020887;28;20125;-76
2022/09/10 05:09:30;;;;;;;7.50;3.50;;;;;;;12.60;100.00;100270.38;5043487;28;20115;-76
2022/09/10 05:11:57;;;;;;;4.20;3.42;;;;;;;12.61;100.00;100277.41;5041279;28;20091;-77
2022/09/10 05:14:23;;;;;;;5.72;3.45;;;;;;;12.68;100.00;100276.41;5040412;28;20037;-76
2022/09/10 05:16:49;;;;;;;3.78;3.22;;;;;;;12.64;100.00;100277.34;5042801;28;20135;-76
2022/09/10 05:19:16;;;;;;;5.28;3.22;;;;;;;12.67;100.00;100277.28;5039556;28;20030;-76
2022/09/10 05:21:47;;;;;;;6.45;3.85;;;;;;;12.73;100.00;100273.63;5043279;28;20411;-76
2022/09/10 05:24:14;;;;;;;4.22;3.42;;;;;;;12.80;100.00;100277.06;5040396;28;20037;-76
2022/09/10 05:26:40;;;;;;;5.07;3.00;;;;;;;12.91;100.00;100275.94;5042797;28;20029;-77
2022/09/10 05:29:07;;;;;;;8.90;3.85;;;;;;;13.05;100.00;100272.16;5033405;28;20117;-76
2022/09/10 05:31:34;;;;;;;4.10;3.53;;;;;;;13.20;100.00;100270.94;5022243;28;20061;-76
2022/09/10 05:34:00;;;;;;;6.00;3.70;;;;;;;13.34;100.00;100279.53;5040766;28;20120;-76
2022/09/10 05:36:28;;;;;;;6.60;3.50;;;;;;;13.49;100.00;100273.91;5040038;28;20041;-76
2022/09/10 05:38:56;;;;;;;3.67;3.20;;;;;;;13.62;100.00;100279.78;5038398;28;20029;-76
2022/09/10 05:41:22;;;;;;;6.97;3.70;;;;;;;13.76;100.00;100282.13;5039161;28;20028;-76
2022/09/10 05:43:48;;;;;;;5.65;3.30;;;;;;;13.84;100.00;100288.13;5036459;28;20083;-76
2022/09/10 05:46:14;;;;;;;4.65;3.33;;;;;;;13.93;99.07;100279.06;5040193;28;20033;-76
2022/09/10 05:48:44;;;;;;;4.10;3.45;;;;;;;14.00;98.60;100275.38;5044658;28;20032;-76
2022/09/10 05:51:10;;;;;;;5.13;3.35;;;;;;;14.01;98.86;100282.41;5039010;28;20039;-76
2022/09/10 05:53:37;;;;;;;6.38;3.35;;;;;;;14.11;98.09;100278.63;5041814;28;20272;-76
2022/09/10 05:56:04;;;;;;;5.05;3.65;;;;;;;14.13;97.56;100282.09;5042085;28;20044;-76
2022/09/10 05:58:33;;;;;;;4.43;3.60;;;;;;;14.13;97.31;100283.91;5040021;28;20033;-76
2022/09/10 06:00:59;;;;;;;4.90;3.35;;;;;;;14.21;97.19;100279.28;5024964;28;20048;-76
2022/09/10 06:03:25;;;;;;;4.97;3.50;;;;;;;14.31;96.92;100286.09;5043258;28;20120;-76
2022/09/10 06:05:55;;;;;;;5.70;3.85;;;;;;;14.40;96.80;100285.84;5040147;28;20037;-76
2022/09/10 06:08:28;;;;;;;8.73;4.72;;;;;;;14.51;96.82;100276.72;5035542;28;20146;-76
2022/09/10 06:10:59;;;;;;;4.03;3.55;;;;;;;14.65;96.29;100290.56;5038460;28;20559;-76
2022/09/10 06:13:27;;;;;;;4.30;3.90;;;;;;;14.75;96.07;100281.44;5040780;28;20033;-76
2022/09/10 06:15:54;;;;;;;7.53;4.75;;;;;;;14.82;96.21;100285.66;5038904;28;20033;-76
2022/09/10 06:18:19;;;;;;;7.82;3.75;;;;;;;14.90;94.95;100286.28;5039258;28;20399;-76
2022/09/10 06:20:49;;;;;;;9.50;4.45;;;;;;;15.06;94.30;100291.19;5043737;28;20062;-76
2022/09/10 06:23:16;;;;;;;6.82;3.30;;;;;;;15.18;93.49;100296.16;5036373;28;20112;-77
2022/09/10 06:25:43;;;;;;;4.72;4.32;;;;;;;15.30;93.57;100293.16;5035103;28;20026;-77
2022/09/10 06:28:09;;;;;;;8.93;4.43;;;;;;;15.44;92.90;100290.06;5039043;28;20037;-77
2022/09/10 06:30:35;;;;;;;5.80;3.67;;;;;;;15.56;91.25;100283.50;5039285;28;20040;-77
2022/09/10 06:33:00;;;;;;;4.07;3.33;;;;;;;15.65;89.65;100285.91;5037380;28;20029;-77
2022/09/10 06:35:26;;;;;;;7.78;4.32;;;;;;;15.74;88.72;100287.41;5032062;28;20037;-76
2022/09/10 06:37:53;;;;;;;4.88;3.90;;;;;;;15.86;87.81;100284.38;5040423;28;20112;-77
2022/09/10 06:40:20;;;;;;;5.72;3.58;;;;;;;15.98;87.10;100278.66;5033463;28;20030;-77
2022/09/10 06:42:46;;;;;;;7.38;3.80;;;;;;;16.07;86.46;100282.81;5039182;28;20112;-77
2022/09/10 06:45:11;;;;;;;4.53;3.35;;;;;;;16.15;85.43;100286.09;5037012;28;20030;-77
2022/09/10 06:48:17;;;;;;;4.47;4.00;;;;;;;16.24;85.03;100290.22;5020735;28;20069;-76
2022/09/10 06:50:54;;;;;;;4.88;3.55;;;;;;;16.36;83.30;100280.97;4992200;28;20471;-76
2022/09/10 06:53:23;;;;;;;4.35;3.50;;;;;;;16.42;84.52;100272.75;5005619;28;20038;-77
2022/09/10 06:55:52;;;;;;;5.15;3.53;;;;;;;16.54;83.62;100274.16;5025355;28;20083;-77
2022/09/10 06:58:20;;;;;;;4.95;3.60;;;;;;;16.60;82.63;100280.13;5025623;28;20516;-76
2022/09/10 07:00:46;;;;;;;4.53;3.80;;;;;;;16.65;82.22;100285.28;5029376;28;20060;-77
2022/09/10 07:03:15;;;;;;;6.07;3.20;;;;;;;16.74;82.80;100286.75;5035758;28;20108;-76
2022/09/10 07:05:41;;;;;;;5.65;3.50;;;;;;;16.84;82.21;100285.53;5041378;28;20578;-77
2022/09/10 07:08:08;;;;;;;4.90;3.38;;;;;;;16.85;82.23;100281.97;5040150;28;20112;-77
2022/09/10 07:10:36;;;;;;;4.07;3.22;;;;;;;16.91;81.91;100280.88;5039102;28;20026;-76
2022/09/10 07:13:01;;;;;;;4.45;3.30;;;;;;;17.04;80.58;100280.34;5024976;28;20033;-77
2022/09/10 07:15:27;;;;;;;4.78;3.17;;;;;;;17.10;80.48;100281.91;5039099;28;20037;-77
2022/09/10 07:17:53;;;;;;;3.90;3.47;;;;;;;17.15;79.26;100279.09;5042320;28;20032;-77
2022/09/10 07:20:22;;;;;;;3.88;3.50;;;;;;;17.27;78.79;100283.97;5044665;28;20128;-77
2022/09/10 07:22:50;;;;;;;4.30;3.90;;;;;;;17.34;77.66;100284.59;5047347;28;20052;-77
2022/09/10 07:25:18;;;;;;;4.70;3.95;;;;;;;17.41;78.50;100280.78;5032529;28;20029;-77
2022/09/10 07:28:00;;;;;;;4.43;3.92;;;;;;;17.46;77.73;100284.13;5044954;28;20060;-77
2022/09/10 07:30:27;;;;;;;4.78;3.80;;;;;;;17.60;77.78;100287.13;5036624;28;20037;-76
2022/09/10 07:32:53;;;;;;;4.82;3.90;;;;;;;17.63;77.34;100287.03;5030709;28;20082;-77
2022/09/10 07:35:23;;;;;;;4.43;3.33;;;;;;;17.72;76.34;100283.13;5031799;28;20059;-77
2022/09/10 07:37:49;;;;;;;5.60;3.30;;;;;;;17.84;74.87;100292.47;5033027;28;20041;-77
2022/09/10 07:40:14;;;;;;;5.40;3.97;;;;;;;17.84;75.41;100285.34;5036489;28;20450;-77
2022/09/10 07:42:42;;;;;;;6.70;4.38;;;;;;;17.89;75.37;100283.38;5029678;28;20037;-77
2022/09/10 07:45:12;;;;;;;4.25;3.80;;;;;;;17.95;74.58;100288.44;5029347;28;20510;-77
2022/09/10 07:47:39;;;;;;;4.38;3.92;;;;;;;18.02;73.95;100283.72;5034589;28;20104;-77
2022/09/10 07:50:06;;;;;;;6.18;4.18;;;;;;;18.16;75.61;100277.81;5031083;28;20048;-77
2022/09/10 07:52:32;;;;;;;6.65;4.68;;;;;;;18.49;74.36;100277.31;5034558;28;20083;-76
2022/09/10 07:54:57;;;;;;;6.57;4.32;;;;;;;18.67;73.01;100272.97;5031097;28;20109;-77
2022/09/10 07:57:23;;;;;;;5.05;4.55;;;;;;;18.86;71.73;100276.59;5031565;28;20021;-77
2022/09/10 07:59:49;;;;;;;4.70;4.30;;;;;;;19.12;70.31;100277.25;5031114;28;20048;-77
2022/09/10 08:02:17;;;;;;;6.10;3.63;;;;;;;19.22;68.20;100274.06;5030907;28;20033;-77
2022/09/10 08:04:52;;;;;;;4.03;3.58;;;;;;;19.00;66.61;100278.69;5036659;28;20099;-77
2022/09/10 08:07:18;;;;;;;7.55;3.95;;;;;;;18.77;67.36;100277.88;5031159;28;20053;-77
2022/09/10 08:09:44;;;;;;;5.97;5.38;;;;;;;18.71;68.07;100290.63;5031006;28;20029;-77
2022/09/10 08:12:15;;;;;;;6.13;5.63;;;;;;;18.74;67.11;100294.03;5031793;28;20025;-77
2022/09/10 08:14:41;;;;;;;4.95;4.55;;;;;;;18.82;66.47;100286.56;5029075;28;20067;-76
2022/09/10 08:17:07;;;;;;;5.32;4.55;;;;;;;18.82;66.73;100286.56;5033247;28;20033;-76
2022/09/10 08:19:38;;;;;;;6.68;5.78;;;;;;;19.11;66.48;100302.28;5028705;28;20041;-76
2022/09/10 08:22:04;;;;;;;6.53;5.93;;;;;;;19.18;64.75;100287.69;5032408;28;20033;-76
2022/09/10 08:24:36;;;;;;;5.80;5.22;;;;;;;19.37;64.67;100298.41;5030300;28;20039;-76
2022/09/10 08:27:02;;;;;;;6.68;6.00;;;;;;;19.58;63.35;100304.56;5034565;28;20037;-76
2022/09/10 08:29:28;;;;;;;5.57;5.18;;;;;;;19.48;62.62;100296.09;5035944;28;20040;-76
2022/09/10 08:31:55;;;;;;;5.97;5.47;;;;;;;19.47;63.95;100299.72;5040715;28;20029;-76
2022/09/10 08:34:26;;;;;;;7.32;5.10;;;;;;;19.63;64.17;100295.38;5040322;28;20038;-76
2022/09/10 08:36:59;;;;;;;6.32;4.72;;;;;;;19.73;62.66;100300.31;5041900;28;20120;-75
2022/09/10 08:39:26;;;;;;;5.25;4.75;;;;;;;19.63;63.22;100295.38;5042564;28;20070;-76
2022/09/10 08:42:13;;;;;;;5.68;5.18;;;;;;;19.79;62.94;100297.34;5035415;28;20078;-76
2022/09/10 08:44:51;;;;;;;6.18;5.68;;;;;;;19.74;63.21;100302.91;5023500;28;20033;-76
2022/09/10 08:47:29;;;;;;;5.85;5.40;;;;;;;19.84;62.39;100314.06;5055485;28;20531;-75
2022/09/10 08:50:27;;;;;;;5.75;5.13;;;;;;;19.82;62.36;100306.09;5036297;28;20037;-76
2022/09/10 08:53:24;;;;;;;5.93;5.35;;;;;;;19.90;62.63;100311.09;5037110;28;20033;-75
2022/09/10 08:55:56;;;;;;;7.75;6.28;;;;;;;19.78;63.36;100311.66;5036941;28;20082;-76
2022/09/10 08:58:49;;;;;;;6.03;5.53;;;;;;;19.95;62.50;100317.09;5038434;28;20470;-76
2022/09/10 09:01:27;;;;;;;8.00;5.35;;;;;;;19.91;62.54;100312.81;5040736;28;20025;-75
2022/09/10 09:03:56;;;;;;;6.68;4.85;;;;;;;20.25;62.90;100308.47;5039380;28;20068;-76
2022/09/10 09:06:47;;;;;;;6.00;5.40;;;;;;;20.40;61.64;100313.06;5025200;28;20025;-76
2022/09/10 09:09:13;;;;;;;7.45;6.47;;;;;;;20.33;59.77;100317.00;5055900;28;20056;-76
2022/09/10 09:11:53;;;;;;;5.93;5.38;;;;;;;20.32;60.58;100309.91;5043363;28;20495;-76
2022/09/10 09:14:52;;;;;;;5.45;4.95;;;;;;;20.30;60.44;100320.72;5042663;28;20457;-76
2022/09/10 09:17:46;;;;;;;5.53;5.13;;;;;;;20.36;60.65;100314.19;5045416;28;20036;-76
2022/09/10 09:20:36;;;;;;;5.55;5.15;;;;;;;20.28;61.76;100303.84;5038695;28;20083;-75
2022/09/10 09:23:13;;;;;;;5.28;4.82;;;;;;;20.25;61.31;100308.47;5041428;28;20037;-75
2022/09/10 09:25:52;;;;;;;5.40;4.90;;;;;;;20.34;60.96;100302.69;5040670;28;20096;-77
2022/09/10 09:28:51;;;;;;;5.03;4.63;;;;;;;20.40;60.49;100313.06;5036817;28;20111;-76
2022/09/10 09:31:32;;;;;;;5.53;5.07;;;;;;;20.29;59.98;100305.56;5042256;28;20057;-76
2022/09/10 09:34:11;;;;;;;5.07;4.68;;;;;;;20.18;61.14;100313.28;5035321;28;20545;-76
2022/09/10 09:36:41;;;;;;;6.10;5.38;;;;;;;20.25;60.71;100311.16;5020042;28;20041;-76
2022/09/10 09:39:16;;;;;;;5.93;5.32;;;;;;;20.33;61.87;100303.59;5041255;28;20045;-76
2022/09/10 09:41:49;;;;;;;5.82;5.30;;;;;;;20.48;60.61;100310.88;5023808;28;20216;-75
2022/09/10 09:44:34;;;;;;;5.05;4.55;;;;;;;20.24;59.84;100312.13;5043294;28;20033;-76
2022/09/10 09:47:00;;;;;;;5.68;5.15;;;;;;;20.26;61.99;100299.50;5039545;28;20029;-76
2022/09/10 09:49:26;;;;;;;5.20;4.72;;;;;;;20.37;61.99;100305.19;5040730;28;20029;-76
2022/09/10 09:51:54;;;;;;;4.60;4.10;;;;;;;20.50;60.25;100297.41;5042857;28;20037;-76
2022/09/10 09:54:26;;;;;;;5.30;4.90;;;;;;;20.56;60.85;100297.97;5034127;28;20040;-76
2022/09/10 09:56:57;;;;;;;4.57;4.18;;;;;;;20.64;59.08;100299.41;5051827;28;20045;-77
2022/09/10 09:59:33;;;;;;;4.43;3.95;;;;;;;20.62;59.49;100298.59;5038159;28;20549;-76
2022/09/10 10:02:12;;;;;;;5.32;4.85;;;;;;;20.71;58.96;100287.41;5042354;28;20092;-76
2022/09/10 10:05:15;;;;;;;4.60;4.20;;;;;;;20.69;59.40;100292.84;5038590;28;20041;-76
2022/09/10 10:07:41;;;;;;;5.20;4.50;;;;;;;20.72;58.67;100289.13;5000163;28;20042;-76
2022/09/10 10:10:21;;;;;;;5.03;4.63;;;;;;;20.80;58.19;100289.59;5035705;28;20052;-76
2022/09/10 10:12:50;;;;;;;9.55;8.85;;;;;;;20.68;59.61;100284.91;5023685;28;20034;-76
2022/09/10 10:15:39;;;;;;;7.07;4.80;;;;;;;20.31;59.35;100289.44;5039196;28;20091;-76
2022/09/10 10:18:20;;;;;;;5.70;3.95;;;;;;;20.32;61.18;100289.34;5055025;28;20046;-76
2022/09/10 10:20:45;;;;;;;8.13;7.43;;;;;;;20.53;59.82;100286.53;5038597;28;20037;-76
2022/09/10 10:23:31;;;;;;;4.40;3.95;;;;;;;20.68;57.97;100280.41;5042024;28;20056;-75
2022/09/10 10:25:56;;;;;;;4.65;4.22;;;;;;;20.72;57.50;100279.31;5036486;28;20041;-76
2022/09/10 10:28:25;;;;;;;6.53;4.80;;;;;;;20.88;57.19;100279.38;5042366;28;20436;-76
2022/09/10 10:30:57;;;;;;;5.47;5.03;;;;;;;21.16;56.88;100270.69;5041498;28;20045;-76
2022/09/10 10:33:27;;;;;;;5.05;4.55;;;;;;;21.45;54.77;100266.44;5039386;28;20037;-76
2022/09/10 10:35:56;;;;;;;5.22;4.72;;;;;;;21.44;55.03;100264.72;5042303;28;20075;-76
2022/09/10 10:38:39;;;;;;;5.25;4.80;;;;;;;21.69;54.16;100266.00;5041289;28;20029;-76
2022/09/10 10:41:40;;;;;;;5.65;5.22;;;;;;;22.01;52.20;100253.44;5037651;28;20083;-77
2022/09/10 10:44:34;;;;;;;8.88;4.82;;;;;;;22.31;51.80;100253.47;5032999;28;20068;-76
2022/09/10 10:47:24;;;;;;;5.38;4.97;;;;;;;22.48;50.86;100257.00;5036118;28;20381;-77
2022/09/10 10:50:11;;;;;;;5.35;4.82;;;;;;;22.55;51.16;100250.28;5040998;28;20037;-76
2022/09/10 10:52:51;;;;;;;5.43;4.93;;;;;;;22.60;51.15;100252.69;5039340;28;20066;-77
2022/09/10 10:55:49;;;;;;;5.38;4.85;;;;;;;22.57;51.63;100245.69;5024595;28;20030;-77
2022/09/10 10:58:26;;;;;;;5.47;4.97;;;;;;;22.83;51.41;100245.91;5036601;28;20049;-77
2022/09/10 11:00:58;;;;;;;5.35;4.85;;;;;;;22.87;52.61;100242.06;5042333;28;20036;-77
2022/09/10 11:03:54;;;;;;;5.47;4.97;;;;;;;22.41;54.41;100247.56;5044397;28;20091;-77
2022/09/10 11:06:23;;;;;;;5.95;5.18;;;;;;;21.94;54.74;100251.19;5047017;28;20086;-77
2022/09/10 11:08:51;;;;;;;5.07;4.65;;;;;;;21.72;56.13;100257.81;5041280;28;20040;-76
2022/09/10 11:11:27;;;;;;;4.57;4.18;;;;;;;21.35;56.82;100251.78;5045100;28;20056;-77
2022/09/10 11:13:58;;;;;;;5.25;4.75;;;;;;;21.20;56.51;100247.25;5042662;28;20582;-77
2022/09/10 11:16:33;;;;;;;5.45;5.00;;;;;;;21.24;56.69;100240.75;5046072;28;20039;-77
2022/09/10 11:19:30;;;;;;;5.50;5.10;;;;;;;21.39;57.27;100239.94;5047088;28;20133;-77
2022/09/10 11:22:02;;;;;;;5.30;4.88;;;;;;;21.73;55.46;100235.34;5027510;28;20040;-77
2022/09/10 11:24:41;;;;;;;5.50;4.88;;;;;;;21.94;54.20;100235.94;5045908;28;20401;-77
2022/09/10 11:27:28;;;;;;;6.30;5.80;;;;;;;22.12;54.47;100219.69;5041552;28;20041;-77
2022/09/10 11:30:11;;;;;;;5.60;5.15;;;;;;;22.50;52.60;100222.78;5023086;28;20113;-77
2022/09/10 11:32:43;;;;;;;6.88;6.28;;;;;;;22.95;52.38;100224.50;5046001;28;20041;-78
2022/09/10 11:35:30;;;;;;;6.45;5.95;;;;;;;23.46;50.68;100224.00;5023761;28;20038;-77
2022/09/10 11:38:06;;;;;;;7.38;6.05;;;;;;;23.75;50.25;100215.88;5041127;28;20038;-77
2022/09/10 11:40:34;;;;;;;5.20;4.75;;;;;;;23.92;49.93;100215.63;5041245;28;20450;-77
2022/09/10 11:43:09;;;;;;;7.45;5.00;;;;;;;23.42;48.92;100217.06;5043455;28;20041;-76